createdAt,value
2022-11-24T00:01:26.558Z,100517.09
2022-11-24T00:03:59.841Z,100518.53
2022-11-24T00:06:28.651Z,100514.38
2022-11-24T00:08:57.025Z,100522.16
2022-11-24T00:11:28.174Z,100527.47
2022-11-24T00:13:56.423Z,100519.72
2022-11-24T00:16:32.023Z,100528.59
2022-11-24T00:19:01.076Z,100511.94
2022-11-24T00:21:31.498Z,100523.88
2022-11-24T00:23:59.428Z,100532.47
2022-11-24T00:26:35.540Z,100518.03
2022-11-24T00:29:06.460Z,100522.78
2022-11-24T00:31:37.039Z,100510.88
2022-11-24T00:34:11.039Z,100509.75
2022-11-24T00:36:39.222Z,100519.44
2022-11-24T00:39:10.406Z,100521.94
2022-11-24T00:41:37.872Z,100523.88
2022-11-24T00:44:05.604Z,100532.19
2022-11-24T00:46:33.028Z,100534.13
2022-11-24T00:49:00.766Z,100534.66
2022-11-24T00:51:30.531Z,100549.41
2022-11-24T00:53:59.569Z,100546.91
2022-11-24T00:56:28.963Z,100556.06
2022-11-24T00:58:57.484Z,100558.25
2022-11-24T01:01:28.150Z,100544.91
2022-11-24T01:03:56.228Z,100530.16
2022-11-24T01:06:26.487Z,100524.88
2022-11-24T01:08:57.318Z,100533.22
2022-11-24T01:12:01.054Z,100547.66
2022-11-24T01:14:29.272Z,100549.03
2022-11-24T01:16:57.249Z,100543.22
2022-11-24T01:19:24.972Z,100533.78
2022-11-24T01:21:52.662Z,100539.63
2022-11-24T01:24:20.351Z,100537.09
2022-11-24T01:26:47.673Z,100535.16
2022-11-24T01:29:15.148Z,100518.78
2022-11-24T01:31:43.095Z,100532.09
2022-11-24T01:34:10.542Z,100533.75
2022-11-24T01:36:37.723Z,100540.97
2022-11-24T01:39:05.247Z,100536.81
2022-11-24T01:41:34.395Z,100539.56
2022-11-24T01:44:03.984Z,100522.63
2022-11-24T01:46:38.973Z,100537.00
2022-11-24T01:49:13.540Z,100544.63
2022-11-24T01:51:47.854Z,100533.66
2022-11-24T01:54:22.691Z,100542.41
2022-11-24T01:56:53.803Z,100543.28
2022-11-24T01:59:22.404Z,100541.06
2022-11-24T02:01:52.983Z,100539.16
2022-11-24T02:04:24.630Z,100532.78
2022-11-24T02:06:53.226Z,100515.56
2022-11-24T02:09:26.708Z,100512.00
2022-11-24T02:11:55.408Z,100513.41
2022-11-24T02:14:24.688Z,100523.13
2022-11-24T02:16:53.363Z,100531.81
2022-11-24T02:19:39.508Z,100537.34
2022-11-24T02:22:30.022Z,100523.81
2022-11-24T02:25:28.150Z,100530.19
2022-11-24T02:27:57.044Z,100521.34
2022-11-24T02:30:24.768Z,100534.13
2022-11-24T02:32:53.004Z,100524.13
2022-11-24T02:35:20.726Z,100520.78
2022-11-24T02:37:47.921Z,100519.13
2022-11-24T02:40:17.134Z,100527.47
2022-11-24T02:42:47.383Z,100520.53
2022-11-24T02:45:16.474Z,100528.00
2022-11-24T02:47:44.374Z,100525.50
2022-11-24T02:50:12.432Z,100522.50
2022-11-24T02:52:39.758Z,100534.16
2022-11-24T02:55:07.560Z,100541.34
2022-11-24T02:57:35.243Z,100516.38
2022-11-24T03:00:02.532Z,100517.22
2022-11-24T03:02:32.431Z,100518.06
2022-11-24T03:05:00.087Z,100526.34
2022-11-24T03:07:27.341Z,100526.94
2022-11-24T03:09:54.569Z,100505.03
2022-11-24T03:12:21.919Z,100519.16
2022-11-24T03:14:49.357Z,100506.41
2022-11-24T03:17:16.889Z,100510.81
2022-11-24T03:19:44.453Z,100513.03
2022-11-24T03:22:13.352Z,100522.50
2022-11-24T03:24:40.769Z,100501.41
2022-11-24T03:27:08.280Z,100521.09
2022-11-24T03:29:35.582Z,100514.16
2022-11-24T03:32:03.194Z,100507.50
2022-11-24T03:34:30.840Z,100519.16
2022-11-24T03:36:58.728Z,100523.56
2022-11-24T03:39:26.023Z,100516.91
2022-11-24T03:41:53.245Z,100526.88
2022-11-24T03:44:20.504Z,100516.34
2022-11-24T03:46:47.944Z,100505.22
2022-11-24T03:49:15.618Z,100507.47
2022-11-24T03:51:42.919Z,100508.00
2022-11-24T03:54:13.568Z,100515.72
2022-11-24T03:56:40.885Z,100514.06
2022-11-24T03:59:08.968Z,100524.59
2022-11-24T04:01:36.457Z,100507.41
2022-11-24T04:04:03.845Z,100507.44
2022-11-24T04:06:31.387Z,100511.34
2022-11-24T04:09:01.041Z,100502.69
2022-11-24T04:11:46.724Z,100501.84
2022-11-24T04:14:14.468Z,100506.59
2022-11-24T04:16:42.029Z,100497.13
2022-11-24T04:19:09.480Z,100491.31
2022-11-24T04:21:36.999Z,100485.47
2022-11-24T04:24:04.259Z,100487.16
2022-11-24T04:26:31.696Z,100488.84
2022-11-24T04:28:58.925Z,100485.25
2022-11-24T04:31:26.114Z,100485.28
2022-11-24T04:33:54.522Z,100493.88
2022-11-24T04:36:21.880Z,100489.47
2022-11-24T04:39:19.200Z,100494.19
2022-11-24T04:41:37.154Z,100480.31
2022-11-24T04:44:05.787Z,100460.91
2022-11-24T04:46:34.753Z,100470.31
2022-11-24T04:49:02.203Z,100482.53
2022-11-24T04:51:31.267Z,100483.63
2022-11-24T04:53:59.282Z,100463.88
2022-11-24T04:56:27.690Z,100483.81
2022-11-24T04:58:55.727Z,100470.81
2022-11-24T05:01:23.810Z,100485.47
2022-11-24T05:03:58.817Z,100491.28
2022-11-24T05:06:27.238Z,100464.94
2022-11-24T05:08:54.419Z,100476.84
2022-11-24T05:11:23.061Z,100465.38
2022-11-24T05:13:50.326Z,100485.66
2022-11-24T05:16:17.524Z,100500.66
2022-11-24T05:18:45.055Z,100491.53
2022-11-24T05:21:13.586Z,100480.38
2022-11-24T05:23:42.143Z,100499.00
2022-11-24T05:26:10.712Z,100485.66
2022-11-24T05:28:37.818Z,100482.56
2022-11-24T05:31:05.632Z,100506.13
2022-11-24T05:33:33.665Z,100494.44
2022-11-24T05:36:02.867Z,100500.28
2022-11-24T05:38:31.432Z,100498.34
2022-11-24T05:41:03.023Z,100491.13
2022-11-24T05:43:30.624Z,100475.94
2022-11-24T05:46:02.622Z,100491.69
2022-11-24T05:48:29.953Z,100485.06
2022-11-24T05:50:58.790Z,100472.88
2022-11-24T05:53:27.190Z,100484.25
2022-11-24T05:55:54.633Z,100472.34
2022-11-24T05:58:21.808Z,100484.00
2022-11-24T06:00:49.056Z,100469.03
2022-11-24T06:03:16.633Z,100454.06
2022-11-24T06:05:47.301Z,100474.34
2022-11-24T06:08:15.298Z,100470.75
2022-11-24T06:10:43.281Z,100469.97
2022-11-24T06:13:10.594Z,100471.63
2022-11-24T06:15:41.087Z,100456.94
2022-11-24T06:18:08.284Z,100479.69
2022-11-24T06:20:35.984Z,100489.13
2022-11-24T06:23:03.230Z,100483.25
2022-11-24T06:25:30.444Z,100489.63
2022-11-24T06:27:58.902Z,100485.75
2022-11-24T06:30:25.923Z,100477.41
2022-11-24T06:32:57.203Z,100483.53
2022-11-24T06:35:24.422Z,100470.81
2022-11-24T06:37:51.755Z,100480.53
2022-11-24T06:40:19.076Z,100472.84
2022-11-24T06:42:51.583Z,100469.22
2022-11-24T06:45:19.554Z,100481.69
2022-11-24T06:47:46.839Z,100467.84
2022-11-24T06:50:14.041Z,100463.69
2022-11-24T06:52:41.188Z,100456.44
2022-11-24T06:55:09.794Z,100470.84
2022-11-24T06:57:37.177Z,100471.94
2022-11-24T07:00:06.480Z,100478.38
2022-11-24T07:02:34.444Z,100474.78
2022-11-24T07:05:01.995Z,100467.56
2022-11-24T07:07:31.503Z,100470.63
2022-11-24T07:09:58.756Z,100459.25
2022-11-24T07:12:25.975Z,100466.16
2022-11-24T07:14:55.888Z,100442.63
2022-11-24T07:17:23.407Z,100447.06
2022-11-24T07:19:50.465Z,100442.63
2022-11-24T07:22:17.917Z,100448.13
2022-11-24T07:24:44.969Z,100455.63
2022-11-24T07:27:12.605Z,100444.28
2022-11-24T07:29:39.937Z,100456.47
2022-11-24T07:32:07.198Z,100445.63
2022-11-24T07:34:35.190Z,100446.38
2022-11-24T07:37:02.767Z,100445.25
2022-11-24T07:39:29.989Z,100435.28
2022-11-24T07:41:59.471Z,100436.09
2022-11-24T07:44:27.139Z,100445.59
2022-11-24T07:46:54.228Z,100444.81
2022-11-24T07:49:21.305Z,100452.53
2022-11-24T07:51:48.714Z,100448.41
2022-11-24T07:54:15.873Z,100440.88
2022-11-24T07:56:43.133Z,100443.09
2022-11-24T07:59:10.419Z,100435.59
2022-11-24T08:01:37.627Z,100435.59
2022-11-24T08:04:05.124Z,100443.94
2022-11-24T08:06:40.691Z,100440.63
2022-11-24T08:09:10.422Z,100454.19
2022-11-24T08:11:40.035Z,100439.50
2022-11-24T08:14:07.213Z,100421.72
2022-11-24T08:16:34.452Z,100433.03
2022-11-24T08:19:01.928Z,100420.03
2022-11-24T08:21:29.332Z,100429.72
2022-11-24T08:23:57.948Z,100431.16
2022-11-24T08:26:26.238Z,100425.59
2022-11-24T08:28:56.617Z,100418.13
2022-11-24T08:31:26.267Z,100436.38
2022-11-24T08:33:56.865Z,100439.97
2022-11-24T08:36:24.387Z,100436.84
2022-11-24T08:38:59.861Z,100426.47
2022-11-24T08:41:28.467Z,100406.00
2022-11-24T08:43:55.975Z,100417.38
2022-11-24T08:46:24.035Z,100414.88
2022-11-24T08:48:53.391Z,100405.69
2022-11-24T08:51:26.526Z,100411.16
2022-11-24T08:54:01.691Z,100399.09
2022-11-24T08:56:31.339Z,100403.81
2022-11-24T08:58:59.014Z,100404.69
2022-11-24T09:01:27.491Z,100423.91
2022-11-24T09:03:55.282Z,100420.25
2022-11-24T09:06:25.278Z,100410.59
2022-11-24T09:08:55.940Z,100411.34
2022-11-24T09:11:25.340Z,100403.81
2022-11-24T09:13:54.537Z,100406.31
2022-11-24T09:16:27.898Z,100391.63
2022-11-24T09:19:08.388Z,100384.34
2022-11-24T09:21:38.867Z,100391.06
2022-11-24T09:24:08.679Z,100392.41
2022-11-24T09:26:38.982Z,100394.06
2022-11-24T09:29:08.742Z,100370.91
2022-11-24T09:31:37.764Z,100375.31
2022-11-24T09:34:07.352Z,100370.25
2022-11-24T09:36:35.022Z,100350.41
2022-11-24T09:39:02.316Z,100363.34
2022-11-24T09:41:38.851Z,100368.38
2022-11-24T09:44:32.911Z,100352.63
2022-11-24T09:47:23.530Z,100357.44
2022-11-24T09:50:00.880Z,100349.09
2022-11-24T09:52:48.962Z,100339.13
2022-11-24T09:55:59.806Z,100353.25
2022-11-24T09:58:43.465Z,100351.47
2022-11-24T10:01:26.473Z,100349.25
2022-11-24T10:03:54.825Z,100331.09
2022-11-24T10:06:24.979Z,100337.97
2022-11-24T10:09:07.698Z,100333.06
2022-11-24T10:12:09.724Z,100319.25
2022-11-24T10:15:01.768Z,100330.38
2022-11-24T10:17:50.480Z,100329.03
2022-11-24T10:20:17.631Z,100327.00
2022-11-24T10:22:54.459Z,100331.66
2022-11-24T10:25:27.133Z,100326.88
2022-11-24T10:28:15.557Z,100333.53
2022-11-24T10:30:43.131Z,100342.41
2022-11-24T10:33:18.793Z,100322.72
2022-11-24T10:35:55.756Z,100312.03
2022-11-24T10:38:39.438Z,100303.13
2022-11-24T10:41:14.944Z,100306.56
2022-11-24T10:43:45.341Z,100290.16
2022-11-24T10:46:19.285Z,100306.06
2022-11-24T10:49:05.692Z,100303.56
2022-11-24T10:52:05.909Z,100306.59
2022-11-24T10:54:37.052Z,100298.78
2022-11-24T10:57:04.544Z,100297.41
2022-11-24T10:59:38.993Z,100298.25
2022-11-24T11:02:36.630Z,100296.34
2022-11-24T11:05:26.610Z,100301.47
2022-11-24T11:08:26.321Z,100288.16
2022-11-24T11:11:27.689Z,100292.59
2022-11-24T11:14:04.777Z,100269.78
2022-11-24T11:16:51.020Z,100279.44
2022-11-24T11:19:53.153Z,100286.81
2022-11-24T11:22:32.691Z,100276.03
2022-11-24T11:25:05.903Z,100283.97
2022-11-24T11:27:33.624Z,100247.81
2022-11-24T11:36:17.479Z,100274.72
2022-11-24T11:38:47.361Z,100260.91
2022-11-24T11:41:20.814Z,100267.31
2022-11-24T11:43:54.917Z,100257.84
2022-11-24T11:46:23.524Z,100261.22
2022-11-24T11:48:52.225Z,100243.59
2022-11-24T11:51:47.980Z,100270.34
2022-11-24T11:54:55.798Z,100272.75
2022-11-24T11:57:31.984Z,100267.31
2022-11-24T12:00:15.813Z,100277.09
2022-11-24T12:03:20.573Z,100293.81
2022-11-24T12:05:56.901Z,100281.53
2022-11-24T12:08:49.443Z,100267.84
2022-11-24T12:11:43.658Z,100270.34
2022-11-24T12:14:52.949Z,100274.31
2022-11-24T12:17:32.730Z,100267.53
2022-11-24T12:20:24.464Z,100272.88
2022-11-24T12:23:11.559Z,100275.59
2022-11-24T12:25:57.201Z,100264.59
2022-11-24T12:28:51.647Z,100265.72
2022-11-24T12:31:42.551Z,100268.97
2022-11-24T12:34:29.573Z,100258.94
2022-11-24T12:37:38.526Z,100267.94
2022-11-24T12:40:16.501Z,100257.66
2022-11-24T12:43:02.823Z,100245.53
2022-11-24T12:45:45.204Z,100259.59
2022-11-24T12:48:29.042Z,100258.38
2022-11-24T12:50:58.821Z,100243.47
2022-11-24T12:53:31.195Z,100250.03
2022-11-24T12:56:12.453Z,100249.75
2022-11-24T12:58:51.832Z,100265.47
2022-11-24T13:01:29.739Z,100229.72
2022-11-24T13:04:00.119Z,100251.34
2022-11-24T13:06:59.272Z,100241.56
2022-11-24T13:09:26.633Z,100264.22
2022-11-24T13:12:06.275Z,100249.84
2022-11-24T13:14:38.101Z,100239.16
2022-11-24T13:17:36.368Z,100233.50
2022-11-24T13:20:26.518Z,100249.75
2022-11-24T13:23:00.239Z,100263.91
2022-11-24T13:25:35.568Z,100255.88
2022-11-24T13:28:06.920Z,100265.88
2022-11-24T13:30:37.172Z,100262.19
2022-11-24T13:33:16.759Z,100262.88
2022-11-24T13:36:23.190Z,100279.78
2022-11-24T13:38:54.706Z,100253.28
2022-11-24T13:41:34.535Z,100255.03
2022-11-24T13:44:14.016Z,100260.47
2022-11-24T13:47:06.679Z,100263.44
2022-11-24T13:49:43.189Z,100258.56
2022-11-24T13:52:38.285Z,100254.31
2022-11-24T13:55:11.994Z,100269.38
2022-11-24T13:57:45.432Z,100258.06
2022-11-24T14:00:20.596Z,100272.53
2022-11-24T14:02:49.477Z,100260.63
2022-11-24T14:05:19.258Z,100265.81
2022-11-24T14:07:50.041Z,100273.28
2022-11-24T14:10:20.564Z,100279.72
2022-11-24T14:12:48.199Z,100267.09
2022-11-24T14:15:30.178Z,100233.50
2022-11-24T14:17:57.337Z,100260.25
2022-11-24T14:20:27.389Z,100248.19
2022-11-24T14:22:54.712Z,100250.88
2022-11-24T14:25:35.380Z,100260.59
2022-11-24T14:28:03.015Z,100261.16
2022-11-24T14:30:31.067Z,100260.38
2022-11-24T14:33:00.420Z,100270.91
2022-11-24T14:35:32.482Z,100267.31
2022-11-24T14:38:02.418Z,100255.88
2022-11-24T14:40:59.593Z,100263.94
2022-11-24T14:43:32.081Z,100260.31
2022-11-24T14:46:02.033Z,100263.69
2022-11-24T14:48:32.850Z,100262.34
2022-11-24T14:51:22.699Z,100248.16
2022-11-24T14:53:54.160Z,100264.25
2022-11-24T14:56:25.893Z,100248.19
2022-11-24T14:58:54.357Z,100255.50
2022-11-24T15:01:27.478Z,100251.03
2022-11-24T15:04:32.487Z,100243.97
2022-11-24T15:07:11.706Z,100235.63
2022-11-24T15:09:50.503Z,100242.56
2022-11-24T15:12:29.018Z,100249.28
2022-11-24T15:15:01.628Z,100238.69
2022-11-24T15:17:30.565Z,100239.97
2022-11-24T15:20:20.690Z,100249.13
2022-11-24T15:22:48.020Z,100237.19
2022-11-24T15:25:42.114Z,100250.50
2022-11-24T15:28:09.566Z,100258.63
2022-11-24T15:30:37.818Z,100245.81
2022-11-24T15:33:14.779Z,100251.31
2022-11-24T15:35:42.357Z,100258.31
2022-11-24T15:38:10.016Z,100256.16
2022-11-24T15:40:42.232Z,100249.50
2022-11-24T15:43:23.663Z,100252.81
2022-11-24T15:45:51.347Z,100250.28
2022-11-24T15:48:18.614Z,100242.97
2022-11-24T15:50:48.066Z,100250.72
2022-11-24T15:53:36.356Z,100254.69
2022-11-24T15:56:06.185Z,100245.94
2022-11-24T15:58:33.388Z,100253.41
2022-11-24T16:01:00.775Z,100255.31
2022-11-24T16:06:25.351Z,100252.84
2022-11-24T16:08:54.070Z,100272.56
2022-11-24T16:11:21.764Z,100261.84
2022-11-24T16:13:52.960Z,100270.25
2022-11-24T16:16:23.119Z,100285.59
2022-11-24T16:18:50.962Z,100271.16
2022-11-24T16:21:18.238Z,100263.09
2022-11-24T16:23:46.361Z,100272.19
2022-11-24T16:26:15.495Z,100283.50
2022-11-24T16:28:45.346Z,100281.03
2022-11-24T16:31:16.115Z,100278.88
2022-11-24T16:33:45.825Z,100265.59
2022-11-24T16:36:14.344Z,100261.41
2022-11-24T16:38:41.578Z,100254.69
2022-11-24T16:41:10.564Z,100255.50
2022-11-24T16:43:38.206Z,100260.19
2022-11-24T16:46:17.704Z,100263.84
2022-11-24T16:48:53.141Z,100269.66
2022-11-24T16:51:22.580Z,100260.41
2022-11-24T16:53:58.006Z,100247.28
2022-11-24T16:56:26.225Z,100243.47
2022-11-24T16:58:53.965Z,100273.91
2022-11-24T17:01:21.544Z,100248.63
2022-11-24T17:03:48.933Z,100255.88
2022-11-24T17:06:17.113Z,100262.78
2022-11-24T17:08:46.430Z,100268.09
2022-11-24T17:11:15.977Z,100257.34
2022-11-24T17:13:44.155Z,100254.03
2022-11-24T17:16:14.670Z,100253.47
2022-11-24T17:18:42.686Z,100245.06
2022-11-24T17:21:16.414Z,100257.25
2022-11-24T17:23:44.336Z,100255.59
2022-11-24T17:26:16.238Z,100253.84
2022-11-24T17:28:44.321Z,100263.28
2022-11-24T17:31:23.172Z,100250.53
2022-11-24T17:33:51.756Z,100244.41
2022-11-24T17:36:19.748Z,100257.75
2022-11-24T17:38:49.527Z,100269.94
2022-11-24T17:41:18.704Z,100241.16
2022-11-24T17:43:50.392Z,100246.06
2022-11-24T17:46:17.847Z,100252.47
2022-11-24T17:48:46.682Z,100251.19
2022-11-24T17:51:16.467Z,100249.31
2022-11-24T17:53:46.929Z,100243.78
2022-11-24T17:56:17.039Z,100242.59
2022-11-24T17:58:44.569Z,100239.78
2022-11-24T18:01:13.533Z,100218.72
2022-11-24T18:03:41.913Z,100240.59
2022-11-24T18:06:14.696Z,100249.22
2022-11-24T18:08:47.210Z,100237.88
2022-11-24T18:11:27.291Z,100235.09
2022-11-24T18:14:01.215Z,100222.44
2022-11-24T18:16:31.251Z,100239.31
2022-11-24T18:19:08.869Z,100235.44
2022-11-24T18:21:41.128Z,100234.03
2022-11-24T18:24:09.803Z,100237.28
2022-11-24T18:26:37.354Z,100229.06
2022-11-24T18:29:04.957Z,100240.47
2022-11-24T18:31:34.430Z,100243.78
2022-11-24T18:34:02.715Z,100212.25
2022-11-24T18:36:30.934Z,100245.16
2022-11-24T18:39:10.831Z,100231.88
2022-11-24T18:41:39.832Z,100230.25
2022-11-24T18:44:08.706Z,100223.34
2022-11-24T18:46:36.580Z,100235.81
2022-11-24T18:49:04.246Z,100216.41
2022-11-24T18:51:31.772Z,100216.91
2022-11-24T18:53:59.220Z,100236.47
2022-11-24T18:56:28.435Z,100218.25
2022-11-24T18:58:56.755Z,100236.00
2022-11-24T19:01:27.147Z,100220.75
2022-11-24T19:04:15.546Z,100229.53
2022-11-24T19:06:42.987Z,100230.66
2022-11-24T19:09:16.460Z,100232.88
2022-11-24T19:11:45.576Z,100231.28
2022-11-24T19:14:15.852Z,100223.53
2022-11-24T19:16:43.461Z,100221.88
2022-11-24T19:19:12.560Z,100218.50
2022-11-24T19:21:40.956Z,100239.88
2022-11-24T19:24:13.325Z,100241.56
2022-11-24T19:26:41.243Z,100233.81
2022-11-24T19:29:08.984Z,100228.59
2022-11-24T19:31:38.461Z,100224.19
2022-11-24T19:34:08.447Z,100235.19
2022-11-24T19:36:36.614Z,100233.81
2022-11-24T19:39:05.740Z,100232.41
2022-11-24T19:41:33.932Z,100221.31
2022-11-24T19:44:01.653Z,100225.47
2022-11-24T19:46:30.337Z,100222.50
2022-11-24T19:49:00.988Z,100217.19
2022-11-24T19:51:32.260Z,100220.28
2022-11-24T19:54:00.838Z,100223.06
2022-11-24T19:56:30.234Z,100202.03
2022-11-24T19:58:58.283Z,100205.94
2022-11-24T20:01:40.260Z,100217.59
2022-11-24T20:04:10.904Z,100200.44
2022-11-24T20:06:40.804Z,100199.84
2022-11-24T20:09:10.436Z,100208.75
2022-11-24T20:11:38.568Z,100208.75
2022-11-24T20:14:07.313Z,100219.28
2022-11-24T20:16:35.384Z,100208.47
2022-11-24T20:19:08.126Z,100217.88
2022-11-24T20:21:38.857Z,100213.72
2022-11-24T20:24:19.098Z,100212.63
2022-11-24T20:26:49.775Z,100229.81
2022-11-24T20:29:20.172Z,100210.97
2022-11-24T20:31:50.607Z,100202.94
2022-11-24T20:34:18.361Z,100217.59
2022-11-24T20:36:51.168Z,100226.47
2022-11-24T20:39:29.027Z,100224.25
2022-11-24T20:41:56.983Z,100219.28
2022-11-24T20:44:26.894Z,100213.72
2022-11-24T20:46:56.034Z,100219.00
2022-11-24T20:49:23.339Z,100226.19
2022-11-24T20:51:54.621Z,100209.06
2022-11-24T20:54:22.279Z,100222.03
2022-11-24T20:56:49.510Z,100216.50
2022-11-24T20:59:21.557Z,100227.59
2022-11-24T21:01:50.230Z,100220.94
2022-11-24T21:04:20.490Z,100223.69
2022-11-24T21:06:47.972Z,100219.50
2022-11-24T21:09:15.731Z,100238.66
2022-11-24T21:11:43.395Z,100232.00
2022-11-24T21:14:11.370Z,100232.00
2022-11-24T21:16:40.933Z,100221.19
2022-11-24T21:19:11.934Z,100232.50
2022-11-24T21:21:41.198Z,100229.16
2022-11-24T21:24:17.085Z,100218.13
2022-11-24T21:26:48.202Z,100225.63
2022-11-24T21:29:19.124Z,100227.50
2022-11-24T21:31:46.704Z,100221.44
2022-11-24T21:34:15.937Z,100211.72
2022-11-24T21:36:45.238Z,100229.19
2022-11-24T21:39:15.918Z,100218.91
2022-11-24T21:41:43.989Z,100220.28
2022-11-24T21:44:13.173Z,100220.59
2022-11-24T21:46:46.099Z,100224.19
2022-11-24T21:49:17.051Z,100221.41
2022-11-24T21:51:44.163Z,100223.63
2022-11-24T21:54:11.314Z,100215.31
2022-11-24T21:56:38.629Z,100216.19
2022-11-24T21:59:05.800Z,100212.28
2022-11-24T22:01:32.837Z,100223.06
2022-11-24T22:04:00.249Z,100209.75
2022-11-24T22:06:27.516Z,100199.22
2022-11-24T22:08:55.295Z,100215.84
2022-11-24T22:11:25.346Z,100216.06
2022-11-24T22:13:53.811Z,100203.38
2022-11-24T22:16:22.967Z,100207.75
2022-11-24T22:18:50.897Z,100199.69
2022-11-24T22:21:30.712Z,100211.59
2022-11-24T22:23:58.102Z,100195.06
2022-11-24T22:26:26.866Z,100201.38
2022-11-24T22:28:56.119Z,100203.03
2022-11-24T22:31:25.873Z,100189.78
2022-11-24T22:33:54.369Z,100194.22
2022-11-24T22:36:22.703Z,100190.63
2022-11-24T22:38:54.866Z,100195.69
2022-11-24T22:41:22.511Z,100180.16
2022-11-24T22:43:50.090Z,100180.16
2022-11-24T22:46:24.944Z,100186.00
2022-11-24T22:48:53.557Z,100169.38
2022-11-24T22:51:33.186Z,100183.16
2022-11-24T22:54:04.185Z,100175.69
2022-11-24T22:56:32.665Z,100184.81
2022-11-24T22:59:00.858Z,100172.91
2022-11-24T23:01:29.232Z,100184.31
2022-11-24T23:03:56.992Z,100170.22
2022-11-24T23:06:26.654Z,100172.13
2022-11-24T23:08:58.256Z,100178.69
2022-11-24T23:11:37.478Z,100186.66
2022-11-24T23:17:01.035Z,100181.94
2022-11-24T23:19:29.436Z,100190.44
2022-11-24T23:21:56.686Z,100192.09
2022-11-24T23:24:23.708Z,100180.72
2022-11-24T23:26:50.955Z,100180.16
2022-11-24T23:29:18.220Z,100185.16
2022-11-24T23:31:45.316Z,100174.59
2022-11-24T23:34:12.468Z,100181.78
2022-11-24T23:36:39.747Z,100181.78
2022-11-24T23:39:11.000Z,100180.75
2022-11-24T23:41:38.471Z,100179.41
2022-11-24T23:44:06.147Z,100182.75
2022-11-24T23:46:33.746Z,100165.28
2022-11-24T23:49:00.997Z,100161.38
2022-11-24T23:51:33.068Z,100190.13
2022-11-24T23:54:01.887Z,100190.41
2022-11-24T23:56:32.953Z,100195.97
2022-11-24T23:59:02.994Z,100181.28
